Terminal Aerodrome Forecast
Issued by NWS Wilmington, NC

Home | Current Version | Previous Version | Text Only | Print | Product List | Glossary On
Versions: 1 2 3 4 5 6 7 8 9 10 11 12 13 14
312
FTUS42 KILM 222334
TAFFLO
TAF
KFLO 222334Z 2300/2324 12006KT P6SM BKN050
     FM230600 10005KT P6SM BKN045
     FM230900 11005KT P6SM OVC030
     FM231300 13008G17KT P6SM VCSH OVC050
     FM231800 17012G20KT P6SM -SHRA OVC040 PROB30 2320/2324 4SM
      -TSRA BKN025CB=

USA.gov is the U.S. government's official web portal to all federal, state and local government web resources and services.